CMB820 Details

Departure: Joint Base McGuire Dix Lakehurst (KWRI)
Arrival: Patrick Air Force Base (KCOF)
Route: CYN226011 ACY V229 LEEAH V1 ISO J121 MILIE J103 OMN BITHO7
Notes: USTRANSCOM CONTRACT FLIGHT


Current Weather Information
KWRI 212256Z AUTO 32015KT 10SM FEW160 21/04 A2996 RMK AO2 SLP145 T02110042
KCOF 212156Z AUTO 12012KT 10SM CLR 29/22 A2993 RMK AO2 SLP140 T02850215 $